METAR Data
IDs: Format: Raw Decoded Include TAF

Data at: 0410 UTC 24 Jun 2021

METAR for:KAXV (Wapakoneta/Armstrong, OH, US)
Text:KAXV 240355Z AUTO 15005KT 10SM CLR 17/11 A3016 RMK AO2
Temperature: 17.0°C ( 63°F)
Dewpoint: 11.0°C ( 52°F) [RH = 68%]
Pressure (altimeter):30.16 inches Hg (1021.4 mb)
Winds:from the SSE (150 degrees) at 6 MPH (5 knots; 2.6 m/s)
Visibility:10 or more sm (16+ km)
Ceiling:at least 12,000 feet AGL
Clouds:sky clear below 12,000 feet AGL
QC Flag:automated observation with no human augmentation